Time;durP1;ratioP1;P1;durP2;ratioP2;P2;SDS_P1;SDS_P2;PMS_P1;PMS_P2;Temp;Humidity;BMP_temperature;BMP_pressure;BME280_temperature;BME280_humidity;BME280_pressure;Samples;Min_cycle;Max_cycle;Signal;HPM_P1;HPM_P2
2023/07/05 00:00:45;;;;;;;13.10;8.30;;;;;;;20.51;57.91;99565.52;107230;1257;60424;-38
2023/07/05 00:03:13;;;;;;;11.60;7.80;;;;;;;20.47;58.18;99564.95;107102;1257;73852;-38
2023/07/05 00:05:41;;;;;;;11.40;8.40;;;;;;;20.45;57.82;99566.72;107593;1256;67375;-38
2023/07/05 00:08:09;;;;;;;12.30;8.30;;;;;;;20.46;58.24;99569.92;107064;1257;72728;-38
2023/07/05 00:10:36;;;;;;;11.00;8.10;;;;;;;20.47;58.10;99571.95;107041;1257;60411;-38
2023/07/05 00:13:04;;;;;;;13.40;8.20;;;;;;;20.49;57.65;99571.30;107052;1257;61157;-38
2023/07/05 00:15:32;;;;;;;13.60;8.80;;;;;;;20.49;57.72;99570.02;107072;1263;74287;-38
2023/07/05 00:17:59;;;;;;;11.70;8.40;;;;;;;20.50;57.90;99568.20;107145;1257;67634;-38
2023/07/05 00:20:27;;;;;;;12.10;8.50;;;;;;;20.52;58.30;99564.86;107181;1257;72699;-38
2023/07/05 00:22:55;;;;;;;11.70;8.30;;;;;;;20.55;58.76;99567.48;107180;1257;60405;-38
2023/07/05 00:25:22;;;;;;;11.80;8.20;;;;;;;20.61;58.81;99561.23;107224;1257;60105;-38
2023/07/05 00:27:50;;;;;;;12.70;8.50;;;;;;;20.69;59.00;99566.35;107265;1260;72734;-38
2023/07/05 00:30:18;;;;;;;13.50;8.20;;;;;;;20.75;58.80;99566.46;107220;1256;66290;-38
2023/07/05 00:32:45;;;;;;;14.30;8.20;;;;;;;20.79;58.68;99567.49;107160;1260;71444;-38
2023/07/05 00:35:13;;;;;;;16.20;8.70;;;;;;;20.81;59.38;99573.44;107259;1257;60482;-38
2023/07/05 00:37:41;;;;;;;11.80;8.50;;;;;;;20.83;59.66;99571.20;107251;1260;60492;-38
2023/07/05 00:40:09;;;;;;;12.00;7.90;;;;;;;20.85;58.63;99576.27;107165;1257;73677;-38
2023/07/05 00:42:38;;;;;;;11.60;8.10;;;;;;;20.88;58.31;99579.15;107227;1256;66784;-38
2023/07/05 00:45:08;;;;;;;11.10;8.60;;;;;;;20.90;58.73;99586.26;107082;1257;73225;-39
2023/07/05 00:47:38;;;;;;;13.10;8.80;;;;;;;20.91;58.48;99585.05;107209;1257;60406;-39
2023/07/05 00:50:25;;;;;;;11.00;8.00;;;;;;;20.90;57.48;99589.50;107212;1256;60427;-39
2023/07/05 00:52:53;;;;;;;14.70;8.40;;;;;;;20.86;56.95;99596.97;107215;1257;74201;-39
2023/07/05 00:55:21;;;;;;;11.30;8.70;;;;;;;20.82;57.05;99602.07;107114;1257;65738;-39
2023/07/05 00:57:48;;;;;;;12.90;8.70;;;;;;;20.83;57.41;99602.69;107062;1257;73089;-38
2023/07/05 01:00:17;;;;;;;12.90;8.90;;;;;;;20.86;57.72;99599.10;107078;1257;60411;-39
2023/07/05 01:02:46;;;;;;;12.90;8.40;;;;;;;20.87;57.82;99594.52;106943;1257;59267;-39
2023/07/05 01:05:14;;;;;;;12.60;8.60;;;;;;;20.87;58.40;99589.55;107032;1259;73359;-39
2023/07/05 01:07:42;;;;;;;12.70;8.30;;;;;;;20.87;58.85;99583.08;107007;1264;67767;-39
2023/07/05 01:10:24;;;;;;;11.60;8.40;;;;;;;20.87;59.21;99584.52;107298;1256;72673;-39
2023/07/05 01:13:35;;;;;;;13.60;8.00;;;;;;;20.88;58.62;99586.77;107040;1257;61722;-40
2023/07/05 01:16:27;;;;;;;10.80;8.20;;;;;;;20.94;58.81;99580.20;106604;1266;60316;-40
2023/07/05 01:19:27;;;;;;;11.90;8.10;;;;;;;20.94;59.44;99580.20;106701;1264;75902;-40
2023/07/05 01:22:06;;;;;;;10.20;7.90;;;;;;;20.96;59.09;99576.69;107164;1260;67671;-39
2023/07/05 01:24:45;;;;;;;11.40;8.00;;;;;;;20.96;59.00;99579.21;106987;1260;71467;-40
2023/07/05 01:27:25;;;;;;;9.80;8.00;;;;;;;20.97;58.73;99576.13;107101;1257;60402;-39
2023/07/05 01:29:59;;;;;;;10.70;8.30;;;;;;;20.98;58.94;99575.16;106847;1257;60328;-39
2023/07/05 01:32:51;;;;;;;9.70;8.10;;;;;;;20.97;58.95;99572.98;107221;1259;73907;-39
2023/07/05 01:35:23;;;;;;;12.00;8.50;;;;;;;20.97;58.98;99572.41;107295;1254;67631;-39
2023/07/05 01:37:51;;;;;;;17.90;8.10;;;;;;;20.94;58.95;99566.19;107248;1259;72730;-39
2023/07/05 01:40:25;;;;;;;11.00;8.30;;;;;;;20.93;58.49;99563.38;107412;1256;60411;-39
2023/07/05 01:42:55;;;;;;;11.60;8.60;;;;;;;20.93;58.51;99563.38;107580;1251;60287;-39
2023/07/05 01:45:30;;;;;;;10.00;8.50;;;;;;;20.92;58.41;99561.95;107751;1251;73818;-39
2023/07/05 01:48:03;;;;;;;11.20;8.10;;;;;;;20.92;59.13;99566.93;107726;1251;67928;-39
2023/07/05 01:50:41;;;;;;;10.90;7.10;;;;;;;20.88;59.51;99557.55;107553;1254;71429;-39
2023/07/05 01:53:12;;;;;;;10.30;7.40;;;;;;;20.90;59.67;99561.61;107519;1251;61673;-39
2023/07/05 01:55:50;;;;;;;11.00;7.50;;;;;;;20.92;58.98;99559.61;107719;1252;60164;-39
2023/07/05 01:58:19;;;;;;;10.00;7.60;;;;;;;20.91;59.31;99560.56;107549;1251;72659;-39
2023/07/05 02:00:47;;;;;;;11.20;7.10;;;;;;;20.92;59.40;99565.60;107672;1251;66464;-39
2023/07/05 02:03:16;;;;;;;10.10;7.40;;;;;;;20.93;59.73;99567.30;107421;1256;72740;-39
2023/07/05 02:05:45;;;;;;;9.80;7.50;;;;;;;20.92;60.23;99565.04;107537;1257;60424;-39
2023/07/05 02:08:13;;;;;;;12.00;7.80;;;;;;;20.89;60.75;99559.27;107779;1251;60488;-39
2023/07/05 02:10:41;;;;;;;10.00;8.20;;;;;;;20.90;61.48;99559.10;107557;1251;72473;-39
2023/07/05 02:13:10;;;;;;;10.00;7.20;;;;;;;20.89;62.18;99556.59;107750;1250;66806;-39
2023/07/05 02:15:38;;;;;;;10.00;7.10;;;;;;;20.92;62.14;99551.27;107681;1251;72682;-39
2023/07/05 02:18:07;;;;;;;12.80;7.10;;;;;;;20.96;60.89;99552.59;107620;1251;60178;-39
2023/07/05 02:20:35;;;;;;;9.90;7.80;;;;;;;21.00;60.04;99542.44;107469;1257;60370;-39
2023/07/05 02:23:04;;;;;;;11.00;7.60;;;;;;;21.02;59.47;99530.73;107524;1252;72989;-39
2023/07/05 02:25:31;;;;;;;13.40;8.50;;;;;;;21.03;59.24;99528.74;107446;1252;67666;-39
2023/07/05 02:27:59;;;;;;;13.30;8.50;;;;;;;21.06;59.25;99528.21;107406;1254;72695;-39
2023/07/05 02:30:26;;;;;;;13.70;8.40;;;;;;;21.06;60.03;99528.27;107622;1254;60415;-39
2023/07/05 02:32:55;;;;;;;11.70;8.80;;;;;;;21.06;60.30;99527.98;107577;1251;60530;-39
2023/07/05 02:35:22;;;;;;;12.00;9.10;;;;;;;21.04;61.12;99519.67;107596;1251;73549;-39
2023/07/05 02:37:50;;;;;;;14.50;9.20;;;;;;;21.02;62.02;99521.05;107628;1251;67887;-39
2023/07/05 02:40:18;;;;;;;11.50;8.40;;;;;;;20.97;62.99;99522.95;107560;1251;72708;-39
2023/07/05 02:42:45;;;;;;;10.80;7.90;;;;;;;20.91;63.31;99521.67;107560;1251;60478;-39
2023/07/05 02:45:13;;;;;;;13.70;8.80;;;;;;;20.84;63.23;99527.02;107555;1251;59663;-39
2023/07/05 02:47:41;;;;;;;11.30;9.10;;;;;;;20.75;63.37;99526.88;107386;1251;72882;-39
2023/07/05 02:50:09;;;;;;;14.80;10.30;;;;;;;20.71;64.23;99525.86;107394;1251;68027;-39
2023/07/05 02:52:37;;;;;;;13.60;9.70;;;;;;;20.72;64.54;99533.48;107400;1254;71227;-39
2023/07/05 02:55:05;;;;;;;12.60;10.00;;;;;;;20.71;64.27;99530.89;107554;1254;60450;-39
2023/07/05 02:57:33;;;;;;;13.30;10.00;;;;;;;20.67;63.65;99536.17;107474;1252;60047;-39
2023/07/05 03:00:01;;;;;;;13.80;10.20;;;;;;;20.61;64.07;99531.96;107502;1251;73907;-39
2023/07/05 03:02:31;;;;;;;12.60;9.70;;;;;;;20.56;64.68;99530.56;107562;1256;67596;-39
2023/07/05 03:05:08;;;;;;;15.50;9.90;;;;;;;20.57;64.79;99531.30;107429;1253;72201;-39
2023/07/05 03:07:46;;;;;;;13.90;9.50;;;;;;;20.63;64.55;99526.33;107298;1251;60395;-41
2023/07/05 03:10:20;;;;;;;13.60;10.20;;;;;;;20.66;65.10;99525.48;107428;1254;60369;-38
2023/07/05 03:12:50;;;;;;;15.30;10.00;;;;;;;20.72;65.25;99528.51;107478;1251;72643;-38
2023/07/05 03:15:18;;;;;;;14.80;9.70;;;;;;;20.69;65.34;99514.55;107631;1251;67774;-40
2023/07/05 03:17:47;;;;;;;10.90;9.00;;;;;;;20.78;65.58;99521.93;107312;1251;72702;-40
2023/07/05 03:20:30;;;;;;;12.10;9.30;;;;;;;20.82;65.40;99530.91;107596;1251;60788;-42
2023/07/05 03:23:04;;;;;;;;;;;;;;;20.87;64.77;99532.79;107674;1251;60558;-41
2023/07/05 03:25:33;;;;;;;12.10;9.00;;;;;;;20.81;63.68;99533.38;107545;1251;75657;-39
2023/07/05 03:28:09;;;;;;;12.70;9.00;;;;;;;20.76;63.49;99530.71;107533;1251;66469;-40
2023/07/05 03:30:37;;;;;;;13.70;9.70;;;;;;;20.78;63.46;99521.63;107422;1254;74836;-40
2023/07/05 03:33:05;;;;;;;13.40;8.90;;;;;;;20.84;63.79;99519.77;107495;1251;60334;-40
2023/07/05 03:36:13;;;;;;;12.80;8.90;;;;;;;20.85;64.25;99523.27;107578;1254;60910;-40
2023/07/05 03:38:46;;;;;;;12.70;8.80;;;;;;;20.90;64.96;99521.23;107363;1251;75539;-40
2023/07/05 03:41:21;;;;;;;12.70;8.70;;;;;;;20.94;64.51;99524.14;107390;1254;68530;-38
2023/07/05 03:43:53;;;;;;;12.90;9.50;;;;;;;20.99;62.98;99519.14;107506;1257;72674;-38
2023/07/05 03:46:20;;;;;;;11.70;8.60;;;;;;;21.01;62.92;99512.02;107450;1253;60375;-38
2023/07/05 03:48:48;;;;;;;11.80;8.60;;;;;;;21.06;63.00;99499.39;107619;1253;60747;-39
2023/07/05 03:51:18;;;;;;;10.40;9.20;;;;;;;21.09;63.72;99496.34;107584;1254;73859;-39
2023/07/05 03:53:50;;;;;;;11.50;9.50;;;;;;;21.11;64.48;99496.36;107484;1254;66426;-39
2023/07/05 03:56:18;;;;;;;10.50;8.50;;;;;;;21.13;65.50;99498.78;107514;1254;72626;-39
2023/07/05 03:58:46;;;;;;;11.50;9.10;;;;;;;21.18;65.75;99499.38;107516;1254;60414;-39
2023/07/05 04:01:21;;;;;;;11.40;8.20;;;;;;;21.26;65.75;99497.40;107648;1253;60434;-39
2023/07/05 04:03:53;;;;;;;12.10;8.60;;;;;;;21.33;65.80;99498.42;107533;1254;72510;-39
2023/07/05 04:06:22;;;;;;;12.80;8.70;;;;;;;21.37;66.15;99500.96;107527;1253;67737;-39
2023/07/05 04:08:50;;;;;;;11.20;8.60;;;;;;;21.40;66.08;99504.33;107590;1254;71399;-39
2023/07/05 04:11:17;;;;;;;11.10;8.80;;;;;;;21.43;65.93;99502.84;107533;1254;59214;-38
2023/07/05 04:13:49;;;;;;;11.20;8.80;;;;;;;21.46;65.76;99509.16;107529;1253;60438;-38
2023/07/05 04:16:20;;;;;;;11.10;8.00;;;;;;;21.48;65.05;99514.16;107554;1254;73809;-38
2023/07/05 04:18:52;;;;;;;12.30;8.70;;;;;;;21.53;65.14;99517.11;107602;1254;67564;-38
2023/07/05 04:21:20;;;;;;;12.40;8.80;;;;;;;21.57;64.34;99520.80;107505;1254;72990;-38
2023/07/05 04:23:47;;;;;;;10.80;8.30;;;;;;;21.60;64.94;99521.69;107560;1257;62874;-38
2023/07/05 04:26:17;;;;;;;10.10;8.30;;;;;;;21.63;64.96;99521.92;107384;1253;59774;-38
2023/07/05 04:28:44;;;;;;;10.60;8.40;;;;;;;21.64;64.71;99524.02;107453;1254;73839;-38
2023/07/05 04:31:17;;;;;;;12.90;8.50;;;;;;;21.66;65.02;99524.30;107473;1254;67888;-38
2023/07/05 04:33:45;;;;;;;10.60;8.00;;;;;;;21.71;64.57;99520.49;107542;1255;73109;-38
2023/07/05 04:36:12;;;;;;;12.40;8.60;;;;;;;21.77;63.80;99520.98;107579;1254;60383;-38
2023/07/05 04:38:57;;;;;;;14.50;9.30;;;;;;;21.81;63.66;99518.58;107606;1253;60507;-38
2023/07/05 04:41:26;;;;;;;11.10;8.50;;;;;;;21.83;63.99;99514.98;107558;1254;72145;-38
2023/07/05 04:43:54;;;;;;;11.50;9.00;;;;;;;21.87;63.32;99509.27;107668;1254;67864;-38
2023/07/05 04:46:22;;;;;;;13.40;8.20;;;;;;;21.91;63.40;99506.67;107555;1256;73096;-39
2023/07/05 04:49:15;;;;;;;11.40;8.20;;;;;;;21.93;63.39;99505.52;107569;1254;60364;-41
2023/07/05 04:51:48;;;;;;;10.80;8.90;;;;;;;21.95;63.73;99506.20;107369;1254;60743;-38
2023/07/05 04:54:16;;;;;;;13.80;8.50;;;;;;;21.94;64.29;99505.27;107488;1254;73795;-38
2023/07/05 04:56:44;;;;;;;14.00;8.50;;;;;;;21.99;65.05;99504.92;107470;1252;68145;-38
2023/07/05 04:59:12;;;;;;;10.90;8.90;;;;;;;22.05;65.85;99501.54;107501;1254;72790;-38
2023/07/05 05:01:40;;;;;;;13.50;9.20;;;;;;;22.08;66.27;99492.05;107458;1256;60283;-39
2023/07/05 05:04:14;;;;;;;10.80;9.20;;;;;;;22.09;65.86;99487.30;107378;1252;60428;-38
2023/07/05 05:06:43;;;;;;;13.90;9.50;;;;;;;22.05;65.32;99479.12;107475;1254;73832;-38
2023/07/05 05:09:12;;;;;;;11.90;8.90;;;;;;;22.03;64.80;99478.92;107554;1251;66330;-38
2023/07/05 05:11:41;;;;;;;10.80;8.90;;;;;;;22.04;64.26;99479.16;107397;1254;72653;-38
2023/07/05 05:14:09;;;;;;;12.10;8.90;;;;;;;22.05;63.85;99481.08;107532;1254;60398;-37
2023/07/05 05:16:37;;;;;;;9.90;8.10;;;;;;;22.06;63.74;99480.18;107523;1252;60511;-38
2023/07/05 05:19:05;;;;;;;10.20;8.50;;;;;;;22.11;63.26;99474.64;107514;1253;72620;-38
2023/07/05 05:21:33;;;;;;;11.80;8.30;;;;;;;22.18;62.84;99478.24;107594;1253;67564;-38
2023/07/05 05:24:00;;;;;;;11.90;8.30;;;;;;;22.23;62.23;99479.60;107496;1254;72626;-38
2023/07/05 05:26:28;;;;;;;12.30;8.10;;;;;;;22.27;61.57;99477.67;107529;1254;60299;-38
2023/07/05 05:28:55;;;;;;;10.80;8.60;;;;;;;22.30;61.52;99475.31;107586;1254;61121;-39
2023/07/05 05:31:31;;;;;;;12.00;8.60;;;;;;;22.37;61.42;99476.08;107548;1254;72073;-40
2023/07/05 05:34:06;;;;;;;13.30;8.70;;;;;;;22.40;61.34;99474.48;107432;1254;66860;-38
2023/07/05 05:36:40;;;;;;;14.00;8.60;;;;;;;22.41;61.17;99465.84;107533;1253;71617;-39
2023/07/05 05:39:17;;;;;;;9.50;8.10;;;;;;;22.43;60.67;99469.43;107532;1253;60312;-40
2023/07/05 05:41:45;;;;;;;12.40;8.20;;;;;;;22.44;60.10;99471.94;107483;1254;60287;-39
2023/07/05 05:44:12;;;;;;;10.10;7.90;;;;;;;22.42;59.41;99470.40;107449;1254;74319;-39
2023/07/05 05:46:40;;;;;;;14.70;8.20;;;;;;;22.43;59.27;99472.58;107570;1256;67064;-39
2023/07/05 05:49:08;;;;;;;12.50;8.20;;;;;;;22.45;59.42;99474.10;107532;1253;72728;-39
2023/07/05 05:51:36;;;;;;;13.90;9.10;;;;;;;22.46;59.16;99476.05;107575;1251;60933;-39
2023/07/05 05:54:03;;;;;;;11.70;8.10;;;;;;;22.46;59.21;99474.02;107411;1251;60498;-40
2023/07/05 05:59:11;;;;;;;11.90;8.60;;;;;;;22.46;59.77;99478.58;104036;1297;600300;-38
2023/07/05 06:01:38;;;;;;;10.30;7.90;;;;;;;22.50;59.71;99479.33;106551;1267;61670;-39
2023/07/05 06:04:06;;;;;;;9.80;7.00;;;;;;;22.60;59.65;99479.05;106578;1267;60080;-39
2023/07/05 06:06:33;;;;;;;10.80;7.40;;;;;;;22.73;60.13;99484.41;106477;1267;72268;-39
2023/07/05 06:09:01;;;;;;;11.60;8.00;;;;;;;22.82;59.71;99486.97;106481;1272;67670;-39
2023/07/05 06:11:32;;;;;;;13.80;8.00;;;;;;;22.94;59.76;99492.18;106525;1267;72673;-39
2023/07/05 06:14:01;;;;;;;10.30;7.80;;;;;;;23.07;59.52;99490.61;106537;1267;151075;-39
2023/07/05 06:16:29;;;;;;;13.60;7.70;;;;;;;23.20;59.00;99488.92;106740;1267;60072;-39
2023/07/05 06:18:57;;;;;;;12.50;7.60;;;;;;;23.33;59.09;99492.51;106721;1267;72281;-39
2023/07/05 06:21:24;;;;;;;10.30;7.40;;;;;;;23.44;58.33;99495.23;106759;1264;66792;-39
2023/07/05 06:23:52;;;;;;;11.90;8.40;;;;;;;23.55;58.04;99499.43;106782;1263;71706;-39
2023/07/05 06:26:20;;;;;;;11.40;7.50;;;;;;;23.62;57.38;99503.05;106724;1267;60235;-39
2023/07/05 06:28:47;;;;;;;13.20;8.30;;;;;;;23.70;57.18;99505.27;106724;1267;59675;-39
2023/07/05 06:31:16;;;;;;;10.80;7.80;;;;;;;23.77;57.31;99504.33;106737;1264;73053;-40
2023/07/05 06:33:43;;;;;;;8.80;7.40;;;;;;;23.82;56.94;99501.64;106633;1263;67589;-39
2023/07/05 06:36:11;;;;;;;12.30;8.30;;;;;;;23.85;56.56;99502.33;106654;1270;71742;-40
2023/07/05 06:38:39;;;;;;;12.00;8.20;;;;;;;23.86;56.45;99510.46;106704;1264;60657;-39
2023/07/05 06:41:07;;;;;;;10.50;8.10;;;;;;;23.87;56.51;99511.14;106647;1264;59499;-39
2023/07/05 06:43:34;;;;;;;10.00;8.20;;;;;;;23.87;56.41;99516.34;106644;1263;73090;-39
2023/07/05 06:46:02;;;;;;;11.50;9.10;;;;;;;23.85;56.10;99520.29;106639;1269;66309;-39
2023/07/05 06:48:30;;;;;;;14.40;9.40;;;;;;;23.83;56.74;99527.38;106559;1263;72740;-39
2023/07/05 06:50:59;;;;;;;11.10;8.60;;;;;;;23.83;56.63;99527.92;106535;1264;60104;-39
2023/07/05 06:53:27;;;;;;;12.80;8.90;;;;;;;23.85;56.67;99530.66;106720;1263;60049;-40
2023/07/05 06:56:15;;;;;;;12.80;8.70;;;;;;;23.86;56.69;99530.70;106725;1265;73078;-39
2023/07/05 06:58:42;;;;;;;10.30;8.40;;;;;;;23.86;56.33;99531.41;106783;1266;66714;-39
2023/07/05 07:01:10;;;;;;;9.60;8.20;;;;;;;23.89;56.36;99528.33;106797;1263;72673;-40
2023/07/05 07:03:39;;;;;;;9.90;8.10;;;;;;;23.91;56.19;99530.45;106773;1264;59314;-39
2023/07/05 07:06:07;;;;;;;9.90;8.00;;;;;;;23.94;56.09;99529.42;106654;1264;60233;-39
2023/07/05 07:08:35;;;;;;;10.40;7.70;;;;;;;23.95;56.07;99531.20;106637;1268;73067;-39
2023/07/05 07:11:03;;;;;;;11.00;7.80;;;;;;;23.94;55.92;99537.34;106782;1267;67659;-39
2023/07/05 07:13:31;;;;;;;11.90;8.40;;;;;;;23.92;56.04;99538.34;106693;1267;72695;-39
2023/07/05 07:16:12;;;;;;;12.00;7.70;;;;;;;23.92;56.33;99542.85;106721;1267;60062;-39
2023/07/05 07:18:44;;;;;;;10.20;7.90;;;;;;;23.93;56.09;99548.77;106672;1267;60156;-39
2023/07/05 07:21:13;;;;;;;11.80;8.80;;;;;;;23.93;56.30;99547.48;106668;1266;71826;-40
2023/07/05 07:23:40;;;;;;;10.70;7.90;;;;;;;23.94;56.07;99545.79;106748;1267;67930;-39
2023/07/05 07:26:16;;;;;;;9.70;7.60;;;;;;;23.97;55.69;99548.08;107205;1262;70574;-39
2023/07/05 07:28:49;;;;;;;12.00;7.70;;;;;;;24.00;55.87;99552.14;107056;1258;59522;-40
2023/07/05 07:31:19;;;;;;;9.90;7.50;;;;;;;24.04;55.47;99549.02;107237;1263;60309;-40
2023/07/05 07:33:47;;;;;;;11.10;7.70;;;;;;;24.06;55.49;99545.21;107276;1257;73891;-40
2023/07/05 07:36:21;;;;;;;9.50;7.70;;;;;;;24.14;54.98;99546.40;107122;1258;67920;-40
2023/07/05 07:38:50;;;;;;;10.80;7.90;;;;;;;24.18;55.14;99542.80;107205;1260;72859;-40
2023/07/05 07:41:30;;;;;;;10.40;7.60;;;;;;;24.24;54.84;99546.97;107211;1258;59622;-41
2023/07/05 07:44:09;;;;;;;12.20;8.30;;;;;;;24.29;54.40;99551.45;107017;1263;60067;-39
2023/07/05 07:46:38;;;;;;;9.10;7.90;;;;;;;24.32;53.70;99553.66;107211;1258;73084;-39
2023/07/05 07:49:06;;;;;;;10.70;8.40;;;;;;;24.34;53.79;99558.08;107058;1257;66306;-39
2023/07/05 07:51:35;;;;;;;11.60;7.40;;;;;;;24.41;53.26;99558.73;106985;1258;73180;-39
2023/07/05 07:54:08;;;;;;;11.10;8.00;;;;;;;24.47;52.07;99562.95;107032;1262;60199;-39
2023/07/05 07:56:36;;;;;;;14.40;8.00;;;;;;;24.52;51.68;99567.46;108926;1257;60121;-37
2023/07/05 07:59:07;;;;;;;13.00;7.90;;;;;;;24.57;51.28;99565.53;108904;1258;73038;-37
2023/07/05 08:01:37;;;;;;;12.40;7.60;;;;;;;24.63;51.01;99571.86;108990;1257;67924;-37
2023/07/05 08:04:09;;;;;;;9.80;7.90;;;;;;;24.71;50.76;99574.79;108873;1259;71501;-37
2023/07/05 08:06:51;;;;;;;10.50;7.60;;;;;;;24.77;50.65;99573.38;107018;1257;60101;-38
2023/07/05 08:09:28;;;;;;;13.20;7.70;;;;;;;24.82;50.42;99571.61;107137;1257;60050;-38
2023/07/05 08:11:56;;;;;;;11.10;7.60;;;;;;;24.85;50.41;99570.48;107201;1257;73106;-39
2023/07/05 08:14:24;;;;;;;10.30;7.50;;;;;;;24.89;50.13;99575.84;107183;1257;66844;-38
2023/07/05 08:16:51;;;;;;;11.30;8.10;;;;;;;24.92;50.02;99576.67;107144;1257;73207;-38
2023/07/05 08:19:20;;;;;;;12.40;8.60;;;;;;;24.96;50.15;99579.88;107189;1257;60042;-38
2023/07/05 08:21:49;;;;;;;22.80;10.30;;;;;;;24.98;50.15;99580.73;107193;1257;60370;-38
2023/07/05 08:24:17;;;;;;;11.30;8.60;;;;;;;25.02;50.71;99580.35;107089;1261;71825;-38
2023/07/05 08:26:47;;;;;;;22.60;11.70;;;;;;;25.07;51.22;99583.88;107097;1257;67983;-38
2023/07/05 08:29:15;;;;;;;15.70;9.90;;;;;;;25.14;51.35;99586.72;107195;1257;72702;-38
2023/07/05 08:31:45;;;;;;;14.70;8.50;;;;;;;25.24;51.13;99588.35;107198;1257;60076;-38
2023/07/05 08:34:14;;;;;;;15.70;8.70;;;;;;;25.35;51.26;99590.45;107133;1257;60411;-39
2023/07/05 08:36:42;;;;;;;12.80;9.00;;;;;;;25.45;51.09;99592.27;107065;1257;73088;-38
2023/07/05 08:39:12;;;;;;;11.70;8.90;;;;;;;25.56;50.47;99590.22;107251;1257;67582;-38
2023/07/05 08:41:46;;;;;;;12.70;8.50;;;;;;;25.66;49.80;99591.91;107308;1257;71094;-39
2023/07/05 08:44:37;;;;;;;14.80;9.40;;;;;;;25.72;49.59;99594.47;107183;1257;60081;-40
2023/07/05 08:47:32;;;;;;;13.40;9.20;;;;;;;25.79;49.62;99595.35;107318;1257;59518;-39
2023/07/05 08:50:22;;;;;;;13.70;9.30;;;;;;;25.86;49.85;99602.80;107137;1257;73044;-41
2023/07/05 08:53:20;;;;;;;12.80;8.80;;;;;;;25.91;50.18;99604.88;107205;1257;66360;-41
2023/07/05 08:56:04;;;;;;;13.20;9.30;;;;;;;25.94;50.66;99596.92;106893;1258;72707;-40
2023/07/05 08:58:56;;;;;;;16.50;9.10;;;;;;;25.94;49.78;99595.38;107009;1258;60435;-40
2023/07/05 09:01:28;;;;;;;14.80;9.20;;;;;;;25.96;49.51;99594.67;106958;1257;59538;-40
2023/07/05 09:03:56;;;;;;;14.40;9.90;;;;;;;25.98;49.43;99596.66;106902;1257;72153;-39
2023/07/05 09:06:54;;;;;;;14.30;9.20;;;;;;;26.05;49.17;99594.89;107125;1262;67726;-39
2023/07/05 09:09:54;;;;;;;13.80;8.90;;;;;;;26.14;49.02;99592.93;107176;1257;72722;-38
2023/07/05 09:12:27;;;;;;;10.20;8.90;;;;;;;26.27;49.02;99585.90;107155;1258;60091;-38
2023/07/05 09:15:17;;;;;;;11.20;9.10;;;;;;;26.41;48.97;99587.52;107150;1263;60508;-39
2023/07/05 09:17:59;;;;;;;13.80;9.60;;;;;;;26.63;48.64;99587.48;107101;1263;73103;-38
2023/07/05 09:20:36;;;;;;;13.60;8.90;;;;;;;26.82;48.17;99587.83;107159;1257;67755;-38
2023/07/05 09:23:11;;;;;;;15.00;10.40;;;;;;;27.02;48.19;99582.54;107063;1257;72644;-39
2023/07/05 09:25:40;;;;;;;13.80;9.60;;;;;;;27.19;47.37;99586.36;107259;1257;59615;-38
2023/07/05 09:28:25;;;;;;;14.10;10.20;;;;;;;27.32;47.54;99584.03;107262;1256;60086;-39
2023/07/05 09:30:53;;;;;;;15.50;10.70;;;;;;;27.39;47.52;99577.95;107172;1257;73524;-38
2023/07/05 09:33:24;;;;;;;15.60;10.00;;;;;;;27.46;47.95;99582.24;107129;1257;67616;-38
2023/07/05 09:35:52;;;;;;;12.20;9.10;;;;;;;27.56;46.49;99584.05;107136;1257;72754;-38
2023/07/05 09:38:27;;;;;;;12.80;9.40;;;;;;;27.66;46.21;99584.60;106968;1258;60050;-38
2023/07/05 09:41:01;;;;;;;13.80;10.20;;;;;;;27.77;45.93;99583.94;107121;1257;60036;-38
2023/07/05 09:43:33;;;;;;;15.50;9.60;;;;;;;27.83;46.17;99585.77;107097;1257;71859;-39
2023/07/05 09:46:03;;;;;;;13.60;10.00;;;;;;;27.91;46.26;99580.34;107104;1257;66609;-38
2023/07/05 09:48:30;;;;;;;;;;;;;;;28.00;45.82;99583.05;107145;1262;72705;-39
2023/07/05 09:51:03;;;;;;;9.50;7.90;;;;;;;28.05;45.84;99583.52;107040;1258;60089;-38
2023/07/05 09:53:31;;;;;;;10.80;8.10;;;;;;;28.15;45.16;99582.25;107123;1260;59593;-39
2023/07/05 09:56:11;;;;;;;14.00;9.60;;;;;;;28.28;43.92;99580.62;107076;1262;73155;-39
2023/07/05 09:58:39;;;;;;;9.70;8.10;;;;;;;28.40;43.59;99574.17;107109;1257;66381;-39
2023/07/05 10:01:13;;;;;;;16.30;7.90;;;;;;;28.48;43.39;99573.38;107086;1257;71462;-38
2023/07/05 10:03:58;;;;;;;11.80;8.50;;;;;;;28.55;42.61;99572.20;107060;1257;60167;-38
2023/07/05 10:06:27;;;;;;;12.20;7.90;;;;;;;28.47;42.11;99572.25;107069;1257;59723;-38
2023/07/05 10:08:55;;;;;;;11.90;8.20;;;;;;;28.40;42.97;99575.59;107172;1257;73189;-38
2023/07/05 10:11:28;;;;;;;10.60;8.00;;;;;;;28.38;42.35;99572.66;107155;1262;67839;-38
2023/07/05 10:14:03;;;;;;;10.90;7.80;;;;;;;28.46;43.61;99577.20;107108;1257;72638;-38
2023/07/05 10:16:49;;;;;;;11.10;8.00;;;;;;;28.60;42.93;99574.48;107115;1257;60424;-38
2023/07/05 10:19:22;;;;;;;11.70;8.40;;;;;;;28.77;42.56;99575.81;107138;1257;60317;-38
2023/07/05 10:22:13;;;;;;;13.20;7.40;;;;;;;28.87;42.20;99577.77;107051;1257;72955;-38
2023/07/05 10:25:03;;;;;;;8.20;6.70;;;;;;;29.00;41.64;99572.58;107156;1257;67894;-39
2023/07/05 10:27:48;;;;;;;10.20;7.60;;;;;;;29.12;41.66;99572.54;107288;1262;72855;-40
2023/07/05 10:30:20;;;;;;;11.60;7.40;;;;;;;29.26;41.17;99573.05;107175;1259;60434;-39
2023/07/05 10:33:16;;;;;;;12.10;7.10;;;;;;;29.40;41.43;99573.05;107063;1257;60513;-38
2023/07/05 10:35:46;;;;;;;10.30;8.00;;;;;;;29.57;40.40;99572.67;108034;1257;72578;-39
2023/07/05 10:38:26;;;;;;;9.50;7.30;;;;;;;29.66;40.70;99569.17;107166;1258;67589;-38
2023/07/05 10:41:12;;;;;;;;;;;;;;;29.71;39.46;99564.30;107079;1257;72702;-38
2023/07/05 10:43:40;;;;;;;8.40;6.30;;;;;;;29.55;39.73;99562.08;107104;1258;60380;-38
2023/07/05 10:46:08;;;;;;;10.20;7.00;;;;;;;29.52;40.95;99562.14;107104;1257;60502;-38
2023/07/05 10:48:41;;;;;;;8.40;6.70;;;;;;;29.78;40.42;99557.97;106932;1257;73887;-38
2023/07/05 10:51:15;;;;;;;9.70;6.40;;;;;;;30.16;39.92;99555.16;106978;1259;66683;-38
2023/07/05 10:53:44;;;;;;;9.00;6.70;;;;;;;30.55;39.29;99550.33;107103;1258;72696;-38
2023/07/05 10:56:17;;;;;;;8.90;6.50;;;;;;;30.89;39.02;99544.54;107105;1260;60482;-39
2023/07/05 10:58:50;;;;;;;9.00;6.40;;;;;;;31.24;38.97;99544.54;107135;1257;60462;-38
2023/07/05 11:01:21;;;;;;;9.20;6.50;;;;;;;31.58;37.77;99541.61;106980;1257;72991;-38
2023/07/05 11:03:53;;;;;;;10.10;6.70;;;;;;;31.81;37.35;99540.54;107097;1257;68086;-39
2023/07/05 11:06:21;;;;;;;8.90;6.50;;;;;;;32.02;37.03;99537.83;107031;1258;72727;-38
2023/07/05 11:08:49;;;;;;;10.70;7.30;;;;;;;32.19;37.01;99536.04;107103;1259;60447;-39
2023/07/05 11:11:23;;;;;;;7.60;6.00;;;;;;;32.37;36.53;99530.09;107093;1257;60065;-38
2023/07/05 11:13:51;;;;;;;8.80;6.50;;;;;;;32.63;35.59;99531.20;107186;1257;73891;-38
2023/07/05 11:16:21;;;;;;;9.10;6.40;;;;;;;32.85;35.66;99535.72;107156;1257;67195;-39
2023/07/05 11:18:50;;;;;;;10.20;6.00;;;;;;;33.01;35.49;99533.95;107141;1257;72783;-39
2023/07/05 11:21:37;;;;;;;11.60;6.00;;;;;;;33.21;35.52;99535.36;107215;1257;60552;-39
2023/07/05 11:24:09;;;;;;;7.20;5.20;;;;;;;33.48;34.87;99534.08;107242;1257;60379;-39
2023/07/05 11:26:44;;;;;;;5.60;5.00;;;;;;;33.66;33.33;99532.19;107194;1257;73872;-39
2023/07/05 11:29:25;;;;;;;8.00;5.10;;;;;;;33.75;32.66;99530.73;107183;1257;67605;-39
2023/07/05 11:31:52;;;;;;;8.50;4.80;;;;;;;33.69;32.72;99525.73;107252;1257;72651;-39
2023/07/05 11:34:31;;;;;;;7.40;5.50;;;;;;;33.69;33.34;99527.48;107233;1257;60288;-39
2023/07/05 11:37:02;;;;;;;6.00;4.60;;;;;;;33.81;32.21;99529.20;107256;1256;60636;-39
2023/07/05 11:39:34;;;;;;;5.40;4.60;;;;;;;33.69;32.45;99522.41;107225;1257;72762;-39
2023/07/05 11:42:14;;;;;;;7.20;5.30;;;;;;;33.44;32.68;99524.73;107262;1257;66338;-39
2023/07/05 11:44:49;;;;;;;7.70;5.50;;;;;;;33.26;33.05;99521.86;107138;1259;72723;-39